sensor_id;sensor_type;location;lat;lon;timestamp;P1;durP1;ratioP1;P2;durP2;ratioP2
6898;SDS011;3488;42.616;23.350;2022-12-07T00:01:42;47.25;;;25.10;;
6898;SDS011;3488;42.616;23.350;2022-12-07T00:04:10;47.63;;;25.80;;
6898;SDS011;3488;42.616;23.350;2022-12-07T00:06:40;47.28;;;25.55;;
6898;SDS011;3488;42.616;23.350;2022-12-07T00:09:09;43.47;;;24.20;;
6898;SDS011;3488;42.616;23.350;2022-12-07T00:11:39;41.10;;;24.15;;
6898;SDS011;3488;42.616;23.350;2022-12-07T00:14:07;43.58;;;22.88;;
6898;SDS011;3488;42.616;23.350;2022-12-07T00:16:37;45.72;;;25.67;;
6898;SDS011;3488;42.616;23.350;2022-12-07T00:19:04;43.95;;;24.23;;
6898;SDS011;3488;42.616;23.350;2022-12-07T00:21:32;43.10;;;22.48;;
6898;SDS011;3488;42.616;23.350;2022-12-07T00:24:00;42.30;;;22.67;;
6898;SDS011;3488;42.616;23.350;2022-12-07T00:26:29;33.60;;;21.55;;
6898;SDS011;3488;42.616;23.350;2022-12-07T00:28:59;38.00;;;20.17;;
6898;SDS011;3488;42.616;23.350;2022-12-07T00:31:28;37.42;;;20.50;;
6898;SDS011;3488;42.616;23.350;2022-12-07T00:33:56;34.28;;;20.33;;
6898;SDS011;3488;42.616;23.350;2022-12-07T00:36:24;40.85;;;22.55;;
6898;SDS011;3488;42.616;23.350;2022-12-07T00:38:52;37.83;;;21.50;;
6898;SDS011;3488;42.616;23.350;2022-12-07T00:41:20;37.88;;;22.10;;
6898;SDS011;3488;42.616;23.350;2022-12-07T00:43:48;38.80;;;21.65;;
6898;SDS011;3488;42.616;23.350;2022-12-07T00:46:17;43.00;;;23.27;;
6898;SDS011;3488;42.616;23.350;2022-12-07T00:48:45;42.85;;;21.55;;
6898;SDS011;3488;42.616;23.350;2022-12-07T00:51:14;41.92;;;22.55;;
6898;SDS011;3488;42.616;23.350;2022-12-07T00:53:42;43.67;;;22.58;;
6898;SDS011;3488;42.616;23.350;2022-12-07T00:56:11;40.22;;;21.42;;
6898;SDS011;3488;42.616;23.350;2022-12-07T00:58:39;41.03;;;22.40;;
6898;SDS011;3488;42.616;23.350;2022-12-07T01:01:06;41.72;;;24.00;;
6898;SDS011;3488;42.616;23.350;2022-12-07T01:03:36;39.38;;;23.80;;
6898;SDS011;3488;42.616;23.350;2022-12-07T01:06:05;42.47;;;24.30;;
6898;SDS011;3488;42.616;23.350;2022-12-07T01:08:32;45.22;;;24.20;;
6898;SDS011;3488;42.616;23.350;2022-12-07T01:11:00;41.42;;;24.48;;
6898;SDS011;3488;42.616;23.350;2022-12-07T01:13:29;47.67;;;26.02;;
6898;SDS011;3488;42.616;23.350;2022-12-07T01:15:56;45.95;;;25.20;;
6898;SDS011;3488;42.616;23.350;2022-12-07T01:18:25;46.53;;;26.33;;
6898;SDS011;3488;42.616;23.350;2022-12-07T01:21:01;49.17;;;25.48;;
6898;SDS011;3488;42.616;23.350;2022-12-07T01:23:29;48.28;;;25.73;;
6898;SDS011;3488;42.616;23.350;2022-12-07T01:25:56;50.05;;;26.10;;
6898;SDS011;3488;42.616;23.350;2022-12-07T01:28:24;44.83;;;24.23;;
6898;SDS011;3488;42.616;23.350;2022-12-07T01:30:55;38.78;;;23.70;;
6898;SDS011;3488;42.616;23.350;2022-12-07T01:33:27;36.80;;;21.70;;
6898;SDS011;3488;42.616;23.350;2022-12-07T01:36:01;42.10;;;23.23;;
6898;SDS011;3488;42.616;23.350;2022-12-07T01:38:29;43.28;;;23.40;;
6898;SDS011;3488;42.616;23.350;2022-12-07T01:40:56;45.40;;;25.35;;
6898;SDS011;3488;42.616;23.350;2022-12-07T01:43:24;46.33;;;24.67;;
6898;SDS011;3488;42.616;23.350;2022-12-07T01:45:53;45.75;;;25.33;;
6898;SDS011;3488;42.616;23.350;2022-12-07T01:48:22;55.20;;;28.25;;
6898;SDS011;3488;42.616;23.350;2022-12-07T01:50:53;49.78;;;26.08;;
6898;SDS011;3488;42.616;23.350;2022-12-07T01:53:24;49.50;;;27.00;;
6898;SDS011;3488;42.616;23.350;2022-12-07T01:55:55;57.03;;;26.60;;
6898;SDS011;3488;42.616;23.350;2022-12-07T01:58:24;46.38;;;28.17;;
6898;SDS011;3488;42.616;23.350;2022-12-07T02:00:51;45.47;;;26.67;;
6898;SDS011;3488;42.616;23.350;2022-12-07T02:03:19;55.47;;;27.35;;
6898;SDS011;3488;42.616;23.350;2022-12-07T02:05:50;50.13;;;26.95;;
6898;SDS011;3488;42.616;23.350;2022-12-07T02:08:19;52.90;;;26.83;;
6898;SDS011;3488;42.616;23.350;2022-12-07T02:10:48;46.75;;;25.90;;
6898;SDS011;3488;42.616;23.350;2022-12-07T02:13:16;49.45;;;27.10;;
6898;SDS011;3488;42.616;23.350;2022-12-07T02:15:58;43.22;;;25.65;;
6898;SDS011;3488;42.616;23.350;2022-12-07T02:18:38;49.83;;;26.42;;
6898;SDS011;3488;42.616;23.350;2022-12-07T02:21:29;50.58;;;25.63;;
6898;SDS011;3488;42.616;23.350;2022-12-07T02:24:13;48.38;;;26.70;;
6898;SDS011;3488;42.616;23.350;2022-12-07T02:29:42;59.03;;;28.88;;
6898;SDS011;3488;42.616;23.350;2022-12-07T02:32:13;48.83;;;28.23;;
6898;SDS011;3488;42.616;23.350;2022-12-07T02:34:47;55.60;;;29.33;;
6898;SDS011;3488;42.616;23.350;2022-12-07T02:37:29;44.22;;;27.60;;
6898;SDS011;3488;42.616;23.350;2022-12-07T02:40:03;53.42;;;27.85;;
6898;SDS011;3488;42.616;23.350;2022-12-07T02:42:36;49.67;;;27.10;;
6898;SDS011;3488;42.616;23.350;2022-12-07T02:45:09;47.40;;;23.88;;
6898;SDS011;3488;42.616;23.350;2022-12-07T02:47:38;48.33;;;26.70;;
6898;SDS011;3488;42.616;23.350;2022-12-07T02:50:07;46.90;;;25.45;;
6898;SDS011;3488;42.616;23.350;2022-12-07T02:52:35;45.30;;;23.60;;
6898;SDS011;3488;42.616;23.350;2022-12-07T02:55:03;41.72;;;24.67;;
6898;SDS011;3488;42.616;23.350;2022-12-07T02:57:34;42.55;;;25.95;;
6898;SDS011;3488;42.616;23.350;2022-12-07T03:00:12;52.65;;;25.33;;
6898;SDS011;3488;42.616;23.350;2022-12-07T03:02:46;44.38;;;25.40;;
6898;SDS011;3488;42.616;23.350;2022-12-07T03:05:23;43.80;;;24.20;;
6898;SDS011;3488;42.616;23.350;2022-12-07T03:07:59;49.22;;;25.90;;
6898;SDS011;3488;42.616;23.350;2022-12-07T03:10:33;47.17;;;23.60;;
6898;SDS011;3488;42.616;23.350;2022-12-07T03:13:07;41.42;;;22.25;;
6898;SDS011;3488;42.616;23.350;2022-12-07T03:15:42;46.65;;;23.42;;
6898;SDS011;3488;42.616;23.350;2022-12-07T03:18:13;38.28;;;22.58;;
6898;SDS011;3488;42.616;23.350;2022-12-07T03:20:44;36.67;;;21.27;;
6898;SDS011;3488;42.616;23.350;2022-12-07T03:23:14;33.03;;;20.25;;
6898;SDS011;3488;42.616;23.350;2022-12-07T03:25:45;34.10;;;18.80;;
6898;SDS011;3488;42.616;23.350;2022-12-07T03:28:16;30.17;;;17.83;;
6898;SDS011;3488;42.616;23.350;2022-12-07T03:30:47;31.65;;;18.55;;
6898;SDS011;3488;42.616;23.350;2022-12-07T03:33:19;32.40;;;18.00;;
6898;SDS011;3488;42.616;23.350;2022-12-07T03:35:51;31.52;;;17.40;;
6898;SDS011;3488;42.616;23.350;2022-12-07T03:38:27;20.33;;;12.90;;
6898;SDS011;3488;42.616;23.350;2022-12-07T03:41:00;24.85;;;14.10;;
6898;SDS011;3488;42.616;23.350;2022-12-07T03:43:28;22.08;;;13.27;;
6898;SDS011;3488;42.616;23.350;2022-12-07T03:45:59;34.83;;;16.15;;
6898;SDS011;3488;42.616;23.350;2022-12-07T03:48:33;33.33;;;19.70;;
6898;SDS011;3488;42.616;23.350;2022-12-07T03:51:13;28.80;;;17.55;;
6898;SDS011;3488;42.616;23.350;2022-12-07T03:53:47;31.30;;;17.38;;
6898;SDS011;3488;42.616;23.350;2022-12-07T03:56:19;31.02;;;17.85;;
6898;SDS011;3488;42.616;23.350;2022-12-07T03:58:48;32.83;;;17.02;;
6898;SDS011;3488;42.616;23.350;2022-12-07T04:01:18;24.48;;;17.75;;
6898;SDS011;3488;42.616;23.350;2022-12-07T04:03:45;25.15;;;17.02;;
6898;SDS011;3488;42.616;23.350;2022-12-07T04:06:12;29.70;;;15.65;;
6898;SDS011;3488;42.616;23.350;2022-12-07T04:08:39;22.15;;;13.05;;
6898;SDS011;3488;42.616;23.350;2022-12-07T04:11:06;21.02;;;12.35;;
6898;SDS011;3488;42.616;23.350;2022-12-07T04:13:33;18.85;;;12.20;;
6898;SDS011;3488;42.616;23.350;2022-12-07T04:16:22;23.30;;;13.88;;
6898;SDS011;3488;42.616;23.350;2022-12-07T04:18:48;27.17;;;15.82;;
6898;SDS011;3488;42.616;23.350;2022-12-07T04:21:15;21.48;;;13.20;;
6898;SDS011;3488;42.616;23.350;2022-12-07T04:23:42;28.00;;;16.42;;
6898;SDS011;3488;42.616;23.350;2022-12-07T04:26:09;24.98;;;13.95;;
6898;SDS011;3488;42.616;23.350;2022-12-07T04:28:36;20.08;;;12.90;;
6898;SDS011;3488;42.616;23.350;2022-12-07T04:31:03;16.80;;;11.60;;
6898;SDS011;3488;42.616;23.350;2022-12-07T04:33:31;23.58;;;13.32;;
6898;SDS011;3488;42.616;23.350;2022-12-07T04:35:58;20.95;;;12.18;;
6898;SDS011;3488;42.616;23.350;2022-12-07T04:38:25;20.95;;;12.10;;
6898;SDS011;3488;42.616;23.350;2022-12-07T04:40:52;18.98;;;11.55;;
6898;SDS011;3488;42.616;23.350;2022-12-07T04:43:19;17.20;;;11.25;;
6898;SDS011;3488;42.616;23.350;2022-12-07T04:45:46;20.45;;;11.50;;
6898;SDS011;3488;42.616;23.350;2022-12-07T04:48:13;25.85;;;13.10;;
6898;SDS011;3488;42.616;23.350;2022-12-07T04:50:42;22.80;;;13.93;;
6898;SDS011;3488;42.616;23.350;2022-12-07T04:53:09;24.17;;;12.77;;
6898;SDS011;3488;42.616;23.350;2022-12-07T04:55:35;27.58;;;15.43;;
6898;SDS011;3488;42.616;23.350;2022-12-07T04:58:02;26.00;;;14.85;;
6898;SDS011;3488;42.616;23.350;2022-12-07T05:00:29;25.38;;;16.13;;
6898;SDS011;3488;42.616;23.350;2022-12-07T05:02:56;27.88;;;16.65;;
6898;SDS011;3488;42.616;23.350;2022-12-07T05:05:23;28.15;;;16.27;;
6898;SDS011;3488;42.616;23.350;2022-12-07T05:07:51;36.95;;;17.33;;
6898;SDS011;3488;42.616;23.350;2022-12-07T05:10:18;29.90;;;16.05;;
6898;SDS011;3488;42.616;23.350;2022-12-07T05:12:45;24.73;;;15.77;;
6898;SDS011;3488;42.616;23.350;2022-12-07T05:15:13;29.67;;;15.52;;
6898;SDS011;3488;42.616;23.350;2022-12-07T05:17:40;28.20;;;15.43;;
6898;SDS011;3488;42.616;23.350;2022-12-07T05:20:08;27.70;;;14.32;;
6898;SDS011;3488;42.616;23.350;2022-12-07T05:22:38;22.95;;;13.82;;
6898;SDS011;3488;42.616;23.350;2022-12-07T05:25:06;40.60;;;19.52;;
6898;SDS011;3488;42.616;23.350;2022-12-07T05:27:34;33.42;;;19.38;;
6898;SDS011;3488;42.616;23.350;2022-12-07T05:30:01;40.90;;;21.08;;
6898;SDS011;3488;42.616;23.350;2022-12-07T05:32:28;41.58;;;23.20;;
6898;SDS011;3488;42.616;23.350;2022-12-07T05:34:55;43.08;;;22.75;;
6898;SDS011;3488;42.616;23.350;2022-12-07T05:37:22;45.70;;;23.52;;
6898;SDS011;3488;42.616;23.350;2022-12-07T05:39:49;37.42;;;20.10;;
6898;SDS011;3488;42.616;23.350;2022-12-07T05:42:17;39.60;;;21.85;;
6898;SDS011;3488;42.616;23.350;2022-12-07T05:44:44;33.53;;;18.73;;
6898;SDS011;3488;42.616;23.350;2022-12-07T05:47:12;45.78;;;24.77;;
6898;SDS011;3488;42.616;23.350;2022-12-07T05:49:41;40.42;;;20.42;;
6898;SDS011;3488;42.616;23.350;2022-12-07T05:52:08;33.35;;;19.40;;
6898;SDS011;3488;42.616;23.350;2022-12-07T05:54:35;30.63;;;17.48;;
6898;SDS011;3488;42.616;23.350;2022-12-07T05:57:02;30.67;;;18.13;;
6898;SDS011;3488;42.616;23.350;2022-12-07T05:59:30;30.40;;;16.67;;
6898;SDS011;3488;42.616;23.350;2022-12-07T06:01:57;34.08;;;17.58;;
6898;SDS011;3488;42.616;23.350;2022-12-07T06:04:26;24.95;;;15.23;;
6898;SDS011;3488;42.616;23.350;2022-12-07T06:06:54;31.85;;;15.80;;
6898;SDS011;3488;42.616;23.350;2022-12-07T06:09:22;34.25;;;18.40;;
6898;SDS011;3488;42.616;23.350;2022-12-07T06:11:51;38.08;;;18.80;;
6898;SDS011;3488;42.616;23.350;2022-12-07T06:14:37;35.78;;;19.17;;
6898;SDS011;3488;42.616;23.350;2022-12-07T06:17:04;33.38;;;17.70;;
6898;SDS011;3488;42.616;23.350;2022-12-07T06:19:32;31.60;;;17.67;;
6898;SDS011;3488;42.616;23.350;2022-12-07T06:22:00;36.53;;;19.83;;
6898;SDS011;3488;42.616;23.350;2022-12-07T06:24:27;34.13;;;17.45;;
6898;SDS011;3488;42.616;23.350;2022-12-07T06:26:54;33.60;;;18.15;;
6898;SDS011;3488;42.616;23.350;2022-12-07T06:29:21;40.80;;;19.88;;
6898;SDS011;3488;42.616;23.350;2022-12-07T06:31:49;40.97;;;20.10;;
6898;SDS011;3488;42.616;23.350;2022-12-07T06:34:18;42.13;;;21.85;;
6898;SDS011;3488;42.616;23.350;2022-12-07T06:36:47;40.67;;;20.85;;
6898;SDS011;3488;42.616;23.350;2022-12-07T06:39:16;43.45;;;22.63;;
6898;SDS011;3488;42.616;23.350;2022-12-07T06:41:44;47.45;;;23.80;;
6898;SDS011;3488;42.616;23.350;2022-12-07T06:44:12;59.00;;;27.85;;
6898;SDS011;3488;42.616;23.350;2022-12-07T06:46:39;51.40;;;23.77;;
6898;SDS011;3488;42.616;23.350;2022-12-07T06:49:07;59.83;;;26.90;;
6898;SDS011;3488;42.616;23.350;2022-12-07T06:51:34;58.50;;;26.27;;
6898;SDS011;3488;42.616;23.350;2022-12-07T06:54:06;54.47;;;27.15;;
6898;SDS011;3488;42.616;23.350;2022-12-07T06:56:32;56.40;;;27.67;;
6898;SDS011;3488;42.616;23.350;2022-12-07T06:58:59;54.28;;;27.75;;
6898;SDS011;3488;42.616;23.350;2022-12-07T07:01:26;55.97;;;26.73;;
6898;SDS011;3488;42.616;23.350;2022-12-07T07:03:53;59.55;;;26.63;;
6898;SDS011;3488;42.616;23.350;2022-12-07T07:06:21;53.53;;;28.02;;
6898;SDS011;3488;42.616;23.350;2022-12-07T07:08:48;56.08;;;26.95;;
6898;SDS011;3488;42.616;23.350;2022-12-07T07:11:15;53.25;;;28.60;;
6898;SDS011;3488;42.616;23.350;2022-12-07T07:13:42;60.85;;;29.35;;
6898;SDS011;3488;42.616;23.350;2022-12-07T07:16:11;53.03;;;26.35;;
6898;SDS011;3488;42.616;23.350;2022-12-07T07:18:39;60.35;;;28.77;;
6898;SDS011;3488;42.616;23.350;2022-12-07T07:21:05;63.40;;;26.75;;
6898;SDS011;3488;42.616;23.350;2022-12-07T07:23:34;60.42;;;29.25;;
6898;SDS011;3488;42.616;23.350;2022-12-07T07:26:01;55.47;;;27.17;;
6898;SDS011;3488;42.616;23.350;2022-12-07T07:28:28;62.75;;;29.60;;
6898;SDS011;3488;42.616;23.350;2022-12-07T07:30:57;58.30;;;28.15;;
6898;SDS011;3488;42.616;23.350;2022-12-07T07:33:26;51.83;;;27.70;;
6898;SDS011;3488;42.616;23.350;2022-12-07T07:35:53;59.13;;;27.67;;
6898;SDS011;3488;42.616;23.350;2022-12-07T07:38:20;61.03;;;26.83;;
6898;SDS011;3488;42.616;23.350;2022-12-07T07:40:49;51.85;;;28.25;;
6898;SDS011;3488;42.616;23.350;2022-12-07T07:43:16;58.10;;;27.58;;
6898;SDS011;3488;42.616;23.350;2022-12-07T07:45:42;56.35;;;27.10;;
6898;SDS011;3488;42.616;23.350;2022-12-07T07:48:10;63.75;;;26.75;;
6898;SDS011;3488;42.616;23.350;2022-12-07T07:50:37;50.47;;;26.52;;
6898;SDS011;3488;42.616;23.350;2022-12-07T07:53:04;49.53;;;24.92;;
6898;SDS011;3488;42.616;23.350;2022-12-07T07:55:31;50.83;;;25.42;;
6898;SDS011;3488;42.616;23.350;2022-12-07T07:57:59;53.10;;;26.45;;
6898;SDS011;3488;42.616;23.350;2022-12-07T08:00:26;55.50;;;26.20;;
6898;SDS011;3488;42.616;23.350;2022-12-07T08:02:53;51.42;;;24.77;;
6898;SDS011;3488;42.616;23.350;2022-12-07T08:05:19;43.25;;;24.48;;
6898;SDS011;3488;42.616;23.350;2022-12-07T08:07:46;52.63;;;24.88;;
6898;SDS011;3488;42.616;23.350;2022-12-07T08:10:13;54.22;;;25.58;;
6898;SDS011;3488;42.616;23.350;2022-12-07T08:12:41;55.33;;;26.92;;
6898;SDS011;3488;42.616;23.350;2022-12-07T08:15:29;51.38;;;27.30;;
6898;SDS011;3488;42.616;23.350;2022-12-07T08:17:56;52.17;;;25.75;;
6898;SDS011;3488;42.616;23.350;2022-12-07T08:20:23;48.20;;;23.80;;
6898;SDS011;3488;42.616;23.350;2022-12-07T08:22:50;47.67;;;24.95;;
6898;SDS011;3488;42.616;23.350;2022-12-07T08:25:17;54.30;;;26.75;;
6898;SDS011;3488;42.616;23.350;2022-12-07T08:27:44;55.35;;;26.58;;
6898;SDS011;3488;42.616;23.350;2022-12-07T08:30:14;51.95;;;25.88;;
6898;SDS011;3488;42.616;23.350;2022-12-07T08:32:43;53.60;;;27.77;;
6898;SDS011;3488;42.616;23.350;2022-12-07T08:35:10;47.75;;;25.73;;
6898;SDS011;3488;42.616;23.350;2022-12-07T08:37:38;54.28;;;25.38;;
6898;SDS011;3488;42.616;23.350;2022-12-07T08:40:10;52.17;;;25.58;;
6898;SDS011;3488;42.616;23.350;2022-12-07T08:42:41;53.47;;;25.55;;
6898;SDS011;3488;42.616;23.350;2022-12-07T08:45:11;53.85;;;27.88;;
6898;SDS011;3488;42.616;23.350;2022-12-07T08:47:43;65.65;;;27.35;;
6898;SDS011;3488;42.616;23.350;2022-12-07T08:50:14;59.38;;;28.25;;
6898;SDS011;3488;42.616;23.350;2022-12-07T08:52:43;49.88;;;27.10;;
6898;SDS011;3488;42.616;23.350;2022-12-07T08:55:10;62.13;;;28.15;;
6898;SDS011;3488;42.616;23.350;2022-12-07T08:57:38;50.67;;;27.10;;
6898;SDS011;3488;42.616;23.350;2022-12-07T09:00:26;49.45;;;26.33;;
6898;SDS011;3488;42.616;23.350;2022-12-07T09:02:55;52.85;;;27.63;;
6898;SDS011;3488;42.616;23.350;2022-12-07T09:05:22;54.28;;;27.67;;
6898;SDS011;3488;42.616;23.350;2022-12-07T09:07:50;55.38;;;28.85;;
6898;SDS011;3488;42.616;23.350;2022-12-07T09:10:21;49.97;;;26.10;;
6898;SDS011;3488;42.616;23.350;2022-12-07T09:12:48;62.60;;;27.92;;
6898;SDS011;3488;42.616;23.350;2022-12-07T09:15:15;46.88;;;26.42;;
6898;SDS011;3488;42.616;23.350;2022-12-07T09:17:43;55.70;;;27.80;;
6898;SDS011;3488;42.616;23.350;2022-12-07T09:20:11;56.00;;;27.92;;
6898;SDS011;3488;42.616;23.350;2022-12-07T09:22:38;53.65;;;26.00;;
6898;SDS011;3488;42.616;23.350;2022-12-07T09:25:06;50.92;;;28.40;;
6898;SDS011;3488;42.616;23.350;2022-12-07T09:27:34;46.65;;;26.65;;
6898;SDS011;3488;42.616;23.350;2022-12-07T09:30:01;44.13;;;25.95;;
6898;SDS011;3488;42.616;23.350;2022-12-07T09:32:28;55.35;;;27.60;;
6898;SDS011;3488;42.616;23.350;2022-12-07T09:34:54;64.82;;;36.45;;
6898;SDS011;3488;42.616;23.350;2022-12-07T09:37:23;54.63;;;30.30;;
6898;SDS011;3488;42.616;23.350;2022-12-07T09:39:50;67.85;;;32.50;;
6898;SDS011;3488;42.616;23.350;2022-12-07T09:42:25;50.55;;;28.42;;
6898;SDS011;3488;42.616;23.350;2022-12-07T09:44:55;50.88;;;26.85;;
6898;SDS011;3488;42.616;23.350;2022-12-07T09:47:26;48.97;;;25.95;;
6898;SDS011;3488;42.616;23.350;2022-12-07T09:49:55;44.70;;;23.67;;
6898;SDS011;3488;42.616;23.350;2022-12-07T09:52:31;42.78;;;22.80;;
6898;SDS011;3488;42.616;23.350;2022-12-07T09:54:58;38.38;;;22.58;;
6898;SDS011;3488;42.616;23.350;2022-12-07T09:57:27;33.80;;;20.52;;
6898;SDS011;3488;42.616;23.350;2022-12-07T09:59:56;40.70;;;21.70;;
6898;SDS011;3488;42.616;23.350;2022-12-07T10:02:33;46.90;;;23.27;;
6898;SDS011;3488;42.616;23.350;2022-12-07T10:05:03;38.30;;;22.38;;
6898;SDS011;3488;42.616;23.350;2022-12-07T10:07:33;42.72;;;22.20;;
6898;SDS011;3488;42.616;23.350;2022-12-07T10:10:02;33.90;;;20.58;;
6898;SDS011;3488;42.616;23.350;2022-12-07T10:12:30;41.05;;;20.30;;
6898;SDS011;3488;42.616;23.350;2022-12-07T10:14:59;38.08;;;19.67;;
6898;SDS011;3488;42.616;23.350;2022-12-07T10:17:35;34.53;;;20.30;;
6898;SDS011;3488;42.616;23.350;2022-12-07T10:23:13;32.63;;;19.90;;
6898;SDS011;3488;42.616;23.350;2022-12-07T10:25:41;37.33;;;20.98;;
6898;SDS011;3488;42.616;23.350;2022-12-07T10:28:17;26.45;;;16.92;;
6898;SDS011;3488;42.616;23.350;2022-12-07T10:30:55;29.17;;;18.10;;
6898;SDS011;3488;42.616;23.350;2022-12-07T10:33:31;29.95;;;18.33;;
6898;SDS011;3488;42.616;23.350;2022-12-07T10:36:01;37.67;;;19.73;;
6898;SDS011;3488;42.616;23.350;2022-12-07T10:38:45;34.72;;;19.75;;
6898;SDS011;3488;42.616;23.350;2022-12-07T10:41:14;36.50;;;19.85;;
6898;SDS011;3488;42.616;23.350;2022-12-07T10:43:50;34.35;;;19.50;;
6898;SDS011;3488;42.616;23.350;2022-12-07T10:52:34;36.80;;;21.60;;
6898;SDS011;3488;42.616;23.350;2022-12-07T10:55:16;38.65;;;20.95;;
6898;SDS011;3488;42.616;23.350;2022-12-07T10:57:55;30.42;;;19.95;;
6898;SDS011;3488;42.616;23.350;2022-12-07T11:00:39;35.70;;;20.77;;
6898;SDS011;3488;42.616;23.350;2022-12-07T11:03:37;36.58;;;21.60;;
6898;SDS011;3488;42.616;23.350;2022-12-07T11:06:17;38.05;;;19.98;;
6898;SDS011;3488;42.616;23.350;2022-12-07T11:09:06;31.20;;;20.05;;
6898;SDS011;3488;42.616;23.350;2022-12-07T11:11:57;31.35;;;19.60;;
6898;SDS011;3488;42.616;23.350;2022-12-07T11:14:35;33.08;;;19.65;;
6898;SDS011;3488;42.616;23.350;2022-12-07T11:17:07;37.33;;;20.92;;
6898;SDS011;3488;42.616;23.350;2022-12-07T11:19:50;31.02;;;19.17;;
6898;SDS011;3488;42.616;23.350;2022-12-07T11:22:28;37.47;;;21.10;;
6898;SDS011;3488;42.616;23.350;2022-12-07T11:25:02;34.88;;;19.90;;
6898;SDS011;3488;42.616;23.350;2022-12-07T11:27:46;35.30;;;20.08;;
6898;SDS011;3488;42.616;23.350;2022-12-07T11:30:26;29.58;;;17.23;;
6898;SDS011;3488;42.616;23.350;2022-12-07T11:33:04;31.00;;;19.52;;
6898;SDS011;3488;42.616;23.350;2022-12-07T11:35:46;31.20;;;19.33;;
6898;SDS011;3488;42.616;23.350;2022-12-07T11:38:24;33.00;;;19.70;;
6898;SDS011;3488;42.616;23.350;2022-12-07T11:40:58;32.05;;;18.30;;
6898;SDS011;3488;42.616;23.350;2022-12-07T11:43:43;38.30;;;19.23;;
6898;SDS011;3488;42.616;23.350;2022-12-07T11:46:18;30.55;;;19.23;;
6898;SDS011;3488;42.616;23.350;2022-12-07T11:48:50;38.72;;;19.00;;
6898;SDS011;3488;42.616;23.350;2022-12-07T11:51:21;34.08;;;18.92;;
6898;SDS011;3488;42.616;23.350;2022-12-07T11:53:51;34.08;;;19.30;;
6898;SDS011;3488;42.616;23.350;2022-12-07T11:56:22;31.27;;;18.83;;
6898;SDS011;3488;42.616;23.350;2022-12-07T11:58:54;29.80;;;16.45;;
6898;SDS011;3488;42.616;23.350;2022-12-07T12:01:28;31.00;;;16.15;;
6898;SDS011;3488;42.616;23.350;2022-12-07T12:04:06;26.75;;;15.75;;
6898;SDS011;3488;42.616;23.350;2022-12-07T12:06:45;22.35;;;15.18;;
6898;SDS011;3488;42.616;23.350;2022-12-07T12:09:12;26.27;;;14.98;;
6898;SDS011;3488;42.616;23.350;2022-12-07T12:11:53;25.15;;;13.20;;
6898;SDS011;3488;42.616;23.350;2022-12-07T12:14:37;24.92;;;14.07;;
6898;SDS011;3488;42.616;23.350;2022-12-07T12:17:25;19.73;;;13.32;;
6898;SDS011;3488;42.616;23.350;2022-12-07T12:20:15;19.25;;;11.70;;
6898;SDS011;3488;42.616;23.350;2022-12-07T12:22:48;17.65;;;8.40;;
6898;SDS011;3488;42.616;23.350;2022-12-07T12:25:21;13.75;;;8.48;;
6898;SDS011;3488;42.616;23.350;2022-12-07T12:27:52;11.88;;;7.43;;
6898;SDS011;3488;42.616;23.350;2022-12-07T12:30:29;11.52;;;8.15;;
6898;SDS011;3488;42.616;23.350;2022-12-07T12:33:02;11.18;;;7.13;;
6898;SDS011;3488;42.616;23.350;2022-12-07T12:35:34;18.90;;;9.45;;
6898;SDS011;3488;42.616;23.350;2022-12-07T12:40:53;26.42;;;10.98;;
6898;SDS011;3488;42.616;23.350;2022-12-07T12:43:40;29.80;;;13.02;;
6898;SDS011;3488;42.616;23.350;2022-12-07T12:46:45;12.98;;;7.72;;
6898;SDS011;3488;42.616;23.350;2022-12-07T12:49:30;20.92;;;9.30;;
6898;SDS011;3488;42.616;23.350;2022-12-07T12:52:01;12.23;;;8.18;;
6898;SDS011;3488;42.616;23.350;2022-12-07T12:54:59;18.60;;;10.75;;
6898;SDS011;3488;42.616;23.350;2022-12-07T12:57:28;20.13;;;11.32;;
6898;SDS011;3488;42.616;23.350;2022-12-07T12:59:56;19.88;;;11.93;;
6898;SDS011;3488;42.616;23.350;2022-12-07T13:02:26;20.75;;;11.38;;
6898;SDS011;3488;42.616;23.350;2022-12-07T13:04:55;17.20;;;10.20;;
6898;SDS011;3488;42.616;23.350;2022-12-07T13:10:34;16.33;;;9.90;;
6898;SDS011;3488;42.616;23.350;2022-12-07T13:22:40;12.23;;;7.68;;
6898;SDS011;3488;42.616;23.350;2022-12-07T13:25:18;16.75;;;9.38;;
6898;SDS011;3488;42.616;23.350;2022-12-07T13:27:57;16.95;;;8.23;;
6898;SDS011;3488;42.616;23.350;2022-12-07T13:30:31;18.13;;;9.43;;
6898;SDS011;3488;42.616;23.350;2022-12-07T13:33:09;16.08;;;8.73;;
6898;SDS011;3488;42.616;23.350;2022-12-07T13:35:39;16.38;;;10.57;;
6898;SDS011;3488;42.616;23.350;2022-12-07T13:38:16;16.08;;;9.77;;
6898;SDS011;3488;42.616;23.350;2022-12-07T13:41:04;18.52;;;10.05;;
6898;SDS011;3488;42.616;23.350;2022-12-07T13:43:45;20.15;;;9.27;;
6898;SDS011;3488;42.616;23.350;2022-12-07T13:46:15;26.05;;;11.18;;
6898;SDS011;3488;42.616;23.350;2022-12-07T13:48:50;17.63;;;10.55;;
6898;SDS011;3488;42.616;23.350;2022-12-07T13:51:20;20.25;;;10.48;;
6898;SDS011;3488;42.616;23.350;2022-12-07T13:53:51;19.73;;;11.55;;
6898;SDS011;3488;42.616;23.350;2022-12-07T13:56:21;49.95;;;22.63;;
6898;SDS011;3488;42.616;23.350;2022-12-07T13:58:49;36.45;;;19.58;;
6898;SDS011;3488;42.616;23.350;2022-12-07T14:01:16;29.80;;;16.80;;
6898;SDS011;3488;42.616;23.350;2022-12-07T14:03:43;29.98;;;17.48;;
6898;SDS011;3488;42.616;23.350;2022-12-07T14:06:14;27.52;;;15.40;;
6898;SDS011;3488;42.616;23.350;2022-12-07T14:08:44;25.90;;;12.95;;
6898;SDS011;3488;42.616;23.350;2022-12-07T14:11:17;28.10;;;13.65;;
6898;SDS011;3488;42.616;23.350;2022-12-07T14:13:59;28.63;;;14.32;;
6898;SDS011;3488;42.616;23.350;2022-12-07T14:19:41;31.23;;;15.98;;
6898;SDS011;3488;42.616;23.350;2022-12-07T14:22:18;27.92;;;13.75;;
6898;SDS011;3488;42.616;23.350;2022-12-07T14:24:47;24.02;;;12.95;;
6898;SDS011;3488;42.616;23.350;2022-12-07T14:27:20;27.05;;;14.35;;
6898;SDS011;3488;42.616;23.350;2022-12-07T14:29:50;26.25;;;15.35;;
6898;SDS011;3488;42.616;23.350;2022-12-07T14:32:18;28.88;;;15.45;;
6898;SDS011;3488;42.616;23.350;2022-12-07T14:34:55;31.42;;;14.68;;
6898;SDS011;3488;42.616;23.350;2022-12-07T14:37:23;31.25;;;16.08;;
6898;SDS011;3488;42.616;23.350;2022-12-07T14:39:50;32.05;;;16.50;;
6898;SDS011;3488;42.616;23.350;2022-12-07T14:42:17;27.27;;;14.18;;
6898;SDS011;3488;42.616;23.350;2022-12-07T14:44:46;28.58;;;16.42;;
6898;SDS011;3488;42.616;23.350;2022-12-07T14:47:13;34.50;;;16.42;;
6898;SDS011;3488;42.616;23.350;2022-12-07T14:49:40;37.63;;;20.17;;
6898;SDS011;3488;42.616;23.350;2022-12-07T14:52:09;46.05;;;22.10;;
6898;SDS011;3488;42.616;23.350;2022-12-07T14:54:40;32.90;;;18.25;;
6898;SDS011;3488;42.616;23.350;2022-12-07T14:57:08;42.33;;;20.02;;
6898;SDS011;3488;42.616;23.350;2022-12-07T14:59:35;40.50;;;19.42;;
6898;SDS011;3488;42.616;23.350;2022-12-07T15:02:04;26.85;;;15.13;;
6898;SDS011;3488;42.616;23.350;2022-12-07T15:04:31;23.23;;;11.77;;
6898;SDS011;3488;42.616;23.350;2022-12-07T15:06:59;23.45;;;12.40;;
6898;SDS011;3488;42.616;23.350;2022-12-07T15:09:27;24.00;;;12.38;;
6898;SDS011;3488;42.616;23.350;2022-12-07T15:11:54;23.45;;;13.27;;
6898;SDS011;3488;42.616;23.350;2022-12-07T15:14:21;23.88;;;13.93;;
6898;SDS011;3488;42.616;23.350;2022-12-07T15:16:47;24.88;;;12.68;;
6898;SDS011;3488;42.616;23.350;2022-12-07T15:19:16;26.45;;;16.33;;
6898;SDS011;3488;42.616;23.350;2022-12-07T15:21:44;28.27;;;16.08;;
6898;SDS011;3488;42.616;23.350;2022-12-07T15:24:12;36.42;;;19.25;;
6898;SDS011;3488;42.616;23.350;2022-12-07T15:26:39;59.28;;;30.25;;
6898;SDS011;3488;42.616;23.350;2022-12-07T15:29:07;30.17;;;16.02;;